createdAt,value
2018-02-16T00:00:03.894Z,0.50
2018-02-16T00:02:31.428Z,0.60
2018-02-16T00:04:58.936Z,0.60
2018-02-16T00:07:27.245Z,0.50
2018-02-16T00:09:54.761Z,0.50
2018-02-16T00:12:22.370Z,0.50
2018-02-16T00:14:49.933Z,0.50
2018-02-16T00:17:17.469Z,0.50
2018-02-16T00:19:44.993Z,0.60
2018-02-16T00:22:13.301Z,0.70
2018-02-16T00:24:41.581Z,0.60
2018-02-16T00:27:09.985Z,0.60
2018-02-16T00:29:37.502Z,0.60
2018-02-16T00:32:05.112Z,0.60
2018-02-16T00:34:32.624Z,0.60
2018-02-16T00:37:00.233Z,0.60
2018-02-16T00:39:27.769Z,0.60
2018-02-16T00:41:56.065Z,0.60
2018-02-16T00:44:23.607Z,0.50
2018-02-16T00:46:51.125Z,0.50
2018-02-16T00:49:19.437Z,0.50
2018-02-16T00:51:47.725Z,0.50
2018-02-16T00:54:15.265Z,0.50
2018-02-16T00:56:43.548Z,0.50
2018-02-16T00:59:11.852Z,0.50
2018-02-16T01:01:39.369Z,0.50
2018-02-16T01:04:06.912Z,0.50
2018-02-16T01:06:34.430Z,0.50
2018-02-16T01:09:01.968Z,0.50
2018-02-16T01:11:30.256Z,0.60
2018-02-16T01:13:57.801Z,0.50
2018-02-16T01:16:26.109Z,0.60
2018-02-16T01:18:53.629Z,0.60
2018-02-16T01:21:21.238Z,0.60
2018-02-16T01:23:48.794Z,0.60
2018-02-16T01:26:16.330Z,0.60
2018-02-16T01:28:44.635Z,0.60
2018-02-16T01:31:12.194Z,0.60
2018-02-16T01:33:39.709Z,0.60
2018-02-16T01:36:07.244Z,0.60
2018-02-16T01:38:34.766Z,0.60
2018-02-16T01:41:02.302Z,0.60
2018-02-16T01:43:30.618Z,0.70
2018-02-16T01:45:58.185Z,0.60
2018-02-16T01:48:25.697Z,0.70
2018-02-16T01:50:53.233Z,0.60
2018-02-16T01:53:20.754Z,0.70
2018-02-16T01:55:48.321Z,0.60
2018-02-16T01:58:15.837Z,0.60
2018-02-16T02:00:44.161Z,0.60
2018-02-16T02:03:11.718Z,0.60
2018-02-16T02:05:39.256Z,0.60
2018-02-16T02:08:06.777Z,0.60
2018-02-16T02:10:34.296Z,0.60
2018-02-16T02:13:01.857Z,0.60
2018-02-16T02:15:29.373Z,0.60
2018-02-16T02:17:56.982Z,0.60
2018-02-16T02:20:24.496Z,0.60
2018-02-16T02:22:52.804Z,0.70
2018-02-16T02:25:20.327Z,0.60
2018-02-16T02:27:47.882Z,0.60
2018-02-16T02:30:15.505Z,0.60
2018-02-16T02:32:43.042Z,0.60
2018-02-16T02:35:10.561Z,0.60
2018-02-16T02:37:38.101Z,0.60
2018-02-16T02:40:05.625Z,0.60
2018-02-16T02:42:33.156Z,0.60
2018-02-16T02:45:00.681Z,0.70
2018-02-16T02:47:28.205Z,0.70
2018-02-16T02:49:55.793Z,0.70
2018-02-16T02:52:23.313Z,0.70
2018-02-16T02:54:51.616Z,0.70
2018-02-16T02:57:19.137Z,0.70
2018-02-16T02:59:46.679Z,0.70
2018-02-16T03:02:14.304Z,0.70
2018-02-16T03:04:41.870Z,0.70
2018-02-16T03:07:09.384Z,0.70
2018-02-16T03:09:36.932Z,0.70
2018-02-16T03:12:04.549Z,0.70
2018-02-16T03:14:32.084Z,0.70
2018-02-16T03:17:00.364Z,0.70
2018-02-16T03:19:28.666Z,0.70
2018-02-16T03:21:56.194Z,0.70
2018-02-16T03:24:24.506Z,0.70
2018-02-16T03:26:52.044Z,0.70
2018-02-16T03:29:20.354Z,0.70
2018-02-16T03:31:47.873Z,0.60
2018-02-16T03:34:16.157Z,0.60
2018-02-16T03:36:44.466Z,0.60
2018-02-16T03:39:11.981Z,0.60
2018-02-16T03:41:39.586Z,0.60
2018-02-16T03:44:07.105Z,0.60
2018-02-16T03:46:35.415Z,0.60
2018-02-16T03:49:02.988Z,0.60
2018-02-16T03:51:30.522Z,0.70
2018-02-16T03:53:58.801Z,0.70
2018-02-16T03:56:27.106Z,0.70
2018-02-16T03:58:55.485Z,0.70
2018-02-16T04:01:23.020Z,0.70
2018-02-16T04:03:50.548Z,0.70
2018-02-16T04:06:18.089Z,0.70
2018-02-16T04:08:45.626Z,0.70
2018-02-16T04:11:13.178Z,0.60
2018-02-16T04:13:40.697Z,0.70
2018-02-16T04:16:08.221Z,0.70
2018-02-16T04:18:35.760Z,0.70
2018-02-16T04:21:03.277Z,0.70
2018-02-16T04:23:30.894Z,0.70
2018-02-16T04:25:59.177Z,0.70
2018-02-16T04:28:26.716Z,0.60
2018-02-16T04:30:54.290Z,0.70
2018-02-16T04:33:21.832Z,0.70
2018-02-16T04:35:49.349Z,0.70
2018-02-16T04:38:17.013Z,0.70
2018-02-16T04:40:44.537Z,0.70
2018-02-16T04:43:12.078Z,0.70
2018-02-16T04:45:39.606Z,0.70
2018-02-16T04:48:07.214Z,0.70
2018-02-16T04:50:34.730Z,0.70
2018-02-16T04:53:02.274Z,0.70
2018-02-16T04:55:30.556Z,0.60
2018-02-16T04:57:58.105Z,0.60
2018-02-16T05:00:25.631Z,0.60
2018-02-16T05:02:53.158Z,0.60
2018-02-16T05:05:21.472Z,0.60
2018-02-16T05:07:49.033Z,0.60
2018-02-16T05:10:16.578Z,0.60
2018-02-16T05:12:44.097Z,0.60
2018-02-16T05:15:11.717Z,0.50
2018-02-16T05:17:39.234Z,0.50
2018-02-16T05:20:07.542Z,0.50
2018-02-16T05:22:35.112Z,0.50
2018-02-16T05:25:02.653Z,0.50
2018-02-16T05:27:30.177Z,0.60
2018-02-16T05:29:57.718Z,0.60
2018-02-16T05:32:25.236Z,0.60
2018-02-16T05:34:52.768Z,0.60
2018-02-16T05:37:20.289Z,0.60
2018-02-16T05:39:47.835Z,0.60
2018-02-16T05:42:15.354Z,0.60
2018-02-16T05:44:43.673Z,0.50
2018-02-16T05:47:11.197Z,0.50
2018-02-16T05:49:39.476Z,0.40
2018-02-16T05:52:07.781Z,0.40
2018-02-16T05:54:35.353Z,0.40
2018-02-16T05:57:02.893Z,0.40
2018-02-16T05:59:30.412Z,0.40
2018-02-16T06:01:57.958Z,0.50
2018-02-16T06:04:25.486Z,0.50
2018-02-16T06:06:53.026Z,0.50
2018-02-16T06:09:21.331Z,0.50
2018-02-16T06:11:48.866Z,0.50
2018-02-16T06:14:16.554Z,0.50
2018-02-16T06:16:44.093Z,0.50
2018-02-16T06:19:12.378Z,0.50
2018-02-16T06:21:39.926Z,0.50
2018-02-16T06:24:08.241Z,0.50
2018-02-16T06:26:35.776Z,0.50
2018-02-16T06:29:04.058Z,0.50
2018-02-16T06:31:31.593Z,0.50
2018-02-16T06:33:59.113Z,0.60
2018-02-16T06:36:26.628Z,0.50
2018-02-16T06:38:54.941Z,0.60
2018-02-16T06:41:22.461Z,0.60
2018-02-16T06:43:50.765Z,0.60
2018-02-16T06:46:18.346Z,0.60
2018-02-16T06:48:45.889Z,0.60
2018-02-16T06:51:13.507Z,0.60
2018-02-16T06:53:41.135Z,0.60
2018-02-16T06:56:08.694Z,0.60
2018-02-16T06:58:36.229Z,0.70
2018-02-16T07:01:03.814Z,0.70
2018-02-16T07:03:31.383Z,0.70
2018-02-16T07:05:58.904Z,0.70
2018-02-16T07:08:27.309Z,0.70
2018-02-16T07:10:54.829Z,0.70
2018-02-16T07:13:23.146Z,0.70
2018-02-16T07:15:50.670Z,0.70
2018-02-16T07:18:18.956Z,0.80
2018-02-16T07:20:47.258Z,0.80
2018-02-16T07:23:14.774Z,0.80
2018-02-16T07:25:42.314Z,0.90
2018-02-16T07:28:09.834Z,1.00
2018-02-16T07:30:37.373Z,1.10
2018-02-16T07:33:05.660Z,1.20
2018-02-16T07:35:34.073Z,1.30
2018-02-16T07:38:01.601Z,1.20
2018-02-16T07:40:29.922Z,1.40
2018-02-16T07:42:57.474Z,1.40
2018-02-16T07:45:25.041Z,1.40
2018-02-16T07:47:52.565Z,1.50
2018-02-16T07:50:20.874Z,1.50
2018-02-16T07:52:48.392Z,1.50
2018-02-16T07:55:16.713Z,1.60
2018-02-16T07:57:44.273Z,1.60
2018-02-16T08:00:11.812Z,1.60
2018-02-16T08:02:39.401Z,1.70
2018-02-16T08:05:06.949Z,1.70
2018-02-16T08:07:34.478Z,1.70
2018-02-16T08:10:02.786Z,1.80
2018-02-16T08:12:30.318Z,1.70
2018-02-16T08:14:58.638Z,1.80
2018-02-16T08:17:26.153Z,1.70
2018-02-16T08:19:53.761Z,1.80
2018-02-16T08:22:21.300Z,1.80
2018-02-16T08:24:48.826Z,1.80
2018-02-16T08:27:16.371Z,1.80
2018-02-16T08:29:43.889Z,1.80
2018-02-16T08:32:11.429Z,1.80
2018-02-16T08:34:39.723Z,1.70
2018-02-16T08:37:07.269Z,1.70
2018-02-16T08:39:35.564Z,1.70
2018-02-16T08:42:03.109Z,1.70
2018-02-16T08:44:31.430Z,1.80
2018-02-16T08:46:58.969Z,1.80
2018-02-16T08:49:26.493Z,1.80
2018-02-16T08:51:54.813Z,1.80
2018-02-16T08:54:22.338Z,1.80
2018-02-16T08:56:49.881Z,1.80
2018-02-16T08:59:17.410Z,1.90
2018-02-16T09:01:44.953Z,2.00
2018-02-16T09:04:12.478Z,2.00
2018-02-16T09:06:40.014Z,2.10
2018-02-16T09:09:07.656Z,2.20
2018-02-16T09:11:35.181Z,2.20
2018-02-16T09:14:03.597Z,2.30
2018-02-16T09:16:31.125Z,2.30
2018-02-16T09:18:59.433Z,2.40
2018-02-16T09:21:27.006Z,2.40
2018-02-16T09:23:54.566Z,2.50
2018-02-16T09:26:22.130Z,2.50
2018-02-16T09:28:49.669Z,2.60
2018-02-16T09:31:17.551Z,2.60
2018-02-16T09:33:45.930Z,2.50
2018-02-16T09:36:14.349Z,2.50
2018-02-16T09:38:42.833Z,2.50
2018-02-16T09:41:10.361Z,2.60
2018-02-16T09:43:37.914Z,2.50
2018-02-16T09:46:05.488Z,2.50
2018-02-16T09:48:33.140Z,2.40
2018-02-16T09:51:00.665Z,2.50
2018-02-16T09:53:28.953Z,2.60
2018-02-16T09:55:56.542Z,2.60
2018-02-16T09:58:24.076Z,2.60
2018-02-16T10:00:51.625Z,2.70
2018-02-16T10:03:19.911Z,2.80
2018-02-16T10:05:47.505Z,2.80
2018-02-16T10:08:15.022Z,2.80
2018-02-16T10:10:43.343Z,2.80
2018-02-16T11:29:08.045Z,2.90
2018-02-16T11:31:36.493Z,4.80
2018-02-16T11:34:04.105Z,4.80
2018-02-16T11:36:32.577Z,4.90
2018-02-16T11:39:00.129Z,4.90
2018-02-16T11:41:27.747Z,5.00
2018-02-16T11:43:55.288Z,5.10
2018-02-16T11:46:22.869Z,5.10
2018-02-16T11:48:50.423Z,5.00
2018-02-16T11:51:17.950Z,5.10
2018-02-16T11:53:46.248Z,5.20
2018-02-16T11:56:13.773Z,5.20
2018-02-16T11:58:41.325Z,5.40
2018-02-16T12:01:08.846Z,5.70
2018-02-16T12:03:36.360Z,6.00
2018-02-16T12:06:03.973Z,6.10
2018-02-16T12:08:31.500Z,6.10
2018-02-16T12:10:59.811Z,5.90
2018-02-16T12:13:27.334Z,5.90
2018-02-16T12:15:55.636Z,6.20
2018-02-16T12:18:23.154Z,6.20
2018-02-16T12:20:50.768Z,6.20
2018-02-16T12:23:18.285Z,6.20
2018-02-16T12:25:45.822Z,6.10
2018-02-16T12:28:13.345Z,6.10
2018-02-16T12:30:40.887Z,5.80
2018-02-16T12:33:08.404Z,5.70
2018-02-16T12:35:35.945Z,5.70
2018-02-16T12:38:03.471Z,5.80
2018-02-16T12:40:31.008Z,5.80
2018-02-16T12:42:59.294Z,5.70
2018-02-16T12:45:27.609Z,5.60
2018-02-16T12:47:55.170Z,5.60
2018-02-16T12:50:22.702Z,5.40
2018-02-16T12:52:50.988Z,5.30
2018-02-16T12:55:18.527Z,5.30
2018-02-16T12:57:46.821Z,5.20
2018-02-16T13:00:14.408Z,5.10
2018-02-16T13:02:41.932Z,5.00
2018-02-16T13:05:10.246Z,4.90
2018-02-16T13:07:37.814Z,4.80
2018-02-16T13:10:05.334Z,4.80
2018-02-16T13:12:33.644Z,4.70
2018-02-16T13:15:01.175Z,4.70
2018-02-16T13:17:29.482Z,4.60
2018-02-16T13:19:57.003Z,4.60
2018-02-16T13:22:25.354Z,4.50
2018-02-16T13:24:52.852Z,4.50
2018-02-16T13:27:21.154Z,4.50
2018-02-16T13:29:48.678Z,4.50
2018-02-16T13:32:16.982Z,4.50
2018-02-16T13:34:44.500Z,4.40
2018-02-16T13:37:12.042Z,4.50
2018-02-16T13:39:39.566Z,4.50
2018-02-16T13:42:07.142Z,4.60
2018-02-16T13:44:34.705Z,4.70
2018-02-16T13:47:02.250Z,4.90
2018-02-16T13:49:29.775Z,5.00
2018-02-16T13:51:58.111Z,5.30
2018-02-16T13:54:25.641Z,5.30
2018-02-16T13:56:53.193Z,5.30
2018-02-16T13:59:20.837Z,5.30
2018-02-16T14:01:49.126Z,5.40
2018-02-16T14:04:17.541Z,5.50
2018-02-16T14:06:45.062Z,5.40
2018-02-16T14:09:13.374Z,5.40
2018-02-16T14:11:40.894Z,5.50
2018-02-16T14:14:09.207Z,5.30
2018-02-16T14:16:40.674Z,5.30
2018-02-16T14:19:08.218Z,5.40
2018-02-16T14:21:35.746Z,5.40
2018-02-16T14:24:04.099Z,5.40
2018-02-16T14:26:31.627Z,5.40
2018-02-16T14:28:59.200Z,5.40
2018-02-16T14:31:26.730Z,5.30
2018-02-16T14:33:54.283Z,5.20
2018-02-16T14:36:22.565Z,5.10
2018-02-16T14:38:50.112Z,5.10
2018-02-16T14:41:18.394Z,5.00
2018-02-16T14:43:46.706Z,5.00
2018-02-16T14:46:14.224Z,4.90
2018-02-16T14:48:42.525Z,5.00
2018-02-16T14:51:10.046Z,5.00
2018-02-16T14:53:37.667Z,5.00
2018-02-16T14:56:05.204Z,4.90
2018-02-16T14:58:32.754Z,4.80
2018-02-16T15:01:01.095Z,4.60
2018-02-16T15:03:28.621Z,4.60
2018-02-16T15:05:56.140Z,4.50
2018-02-16T15:08:24.448Z,4.40
2018-02-16T15:10:51.970Z,4.40
2018-02-16T15:13:19.578Z,4.40
2018-02-16T15:15:47.093Z,4.40
2018-02-16T15:18:14.705Z,4.40
2018-02-16T15:20:42.228Z,4.30
2018-02-16T15:23:10.547Z,4.20
2018-02-16T15:25:38.100Z,4.20
2018-02-16T15:28:05.761Z,4.10
2018-02-16T15:30:33.291Z,4.10
2018-02-16T15:33:01.579Z,3.90
2018-02-16T15:35:29.124Z,3.90
2018-02-16T15:37:57.408Z,3.70
2018-02-16T15:40:25.744Z,3.60
2018-02-16T15:42:53.280Z,3.60
2018-02-16T15:45:20.821Z,3.60
2018-02-16T15:47:48.349Z,3.50
2018-02-16T15:50:15.881Z,3.40
2018-02-16T15:52:43.404Z,3.30
2018-02-16T15:55:10.955Z,3.20
2018-02-16T15:57:38.538Z,3.10
2018-02-16T16:00:06.085Z,3.00
2018-02-16T16:02:33.968Z,2.90
2018-02-16T16:05:01.642Z,2.80
2018-02-16T16:07:29.195Z,2.80
2018-02-16T16:09:56.736Z,2.70
2018-02-16T16:12:24.312Z,2.60
2018-02-16T16:14:51.873Z,2.40
2018-02-16T16:17:19.396Z,2.30
2018-02-16T16:19:47.711Z,2.10
2018-02-16T16:22:15.237Z,2.00
2018-02-16T16:24:43.550Z,1.80
2018-02-16T16:27:11.071Z,1.80
2018-02-16T16:29:39.388Z,1.60
2018-02-16T16:32:06.914Z,1.50
2018-02-16T16:34:35.218Z,1.40
2018-02-16T16:37:02.785Z,1.40
2018-02-16T16:39:30.334Z,1.30
2018-02-16T16:41:57.865Z,1.30
2018-02-16T16:44:26.342Z,1.20
2018-02-16T16:46:54.638Z,1.10
2018-02-16T16:49:22.181Z,1.10
2018-02-16T16:51:50.510Z,1.00
2018-02-16T16:54:18.071Z,0.90
2018-02-16T16:56:45.626Z,0.80
2018-02-16T16:59:13.146Z,0.70
2018-02-16T17:01:41.449Z,0.50
2018-02-16T17:04:08.970Z,0.50
2018-02-16T17:06:36.501Z,0.40
2018-02-16T17:09:04.023Z,0.40
2018-02-16T17:11:31.561Z,0.30
2018-02-16T17:13:59.846Z,0.20
2018-02-16T17:16:28.142Z,0.20
2018-02-16T17:18:55.657Z,0.20
2018-02-16T17:21:23.194Z,0.20
2018-02-16T17:23:50.710Z,0.20
2018-02-16T17:26:19.106Z,0.10
2018-02-16T17:28:46.674Z,0.10
2018-02-16T17:31:14.217Z,0.10
2018-02-16T17:33:41.741Z,0.00
2018-02-16T17:36:09.262Z,0.00
2018-02-16T17:38:36.820Z,0.00
2018-02-16T17:41:04.342Z,-0.10
2018-02-16T17:43:32.645Z,-0.20
2018-02-16T17:46:00.226Z,-0.30
2018-02-16T17:48:27.769Z,-0.40
2018-02-16T17:50:55.290Z,-0.40
2018-02-16T17:53:23.603Z,-0.50
2018-02-16T17:55:51.122Z,-0.50
2018-02-16T17:58:18.741Z,-0.50
2018-02-16T18:00:46.257Z,-0.50
2018-02-16T18:03:14.561Z,-0.60
2018-02-16T18:05:42.138Z,-0.60
2018-02-16T18:08:09.682Z,-0.70
2018-02-16T18:10:37.230Z,-0.70
2018-02-16T18:13:05.549Z,-0.90
2018-02-16T18:15:33.097Z,-0.80
2018-02-16T18:18:00.613Z,-0.90
2018-02-16T18:20:28.921Z,-0.90
2018-02-16T18:22:56.441Z,-0.90
2018-02-16T18:25:23.999Z,-0.90
2018-02-16T18:27:52.318Z,-0.90
2018-02-16T18:30:19.860Z,-1.00
2018-02-16T18:32:48.150Z,-0.90
2018-02-16T18:35:15.694Z,-0.90
2018-02-16T18:37:44.009Z,-1.00
2018-02-16T18:40:11.550Z,-1.00
2018-02-16T18:42:39.065Z,-0.90
2018-02-16T18:45:06.695Z,-1.00
2018-02-16T18:47:34.261Z,-1.00
2018-02-16T18:50:01.801Z,-1.10
2018-02-16T18:52:29.329Z,-1.10
2018-02-16T18:54:56.865Z,-1.00
2018-02-16T18:57:24.381Z,-1.10
2018-02-16T18:59:51.954Z,-1.10
2018-02-16T19:02:19.489Z,-1.00
2018-02-16T19:04:47.896Z,-1.00
2018-02-16T19:07:15.417Z,-1.10
2018-02-16T19:09:43.738Z,-1.20
2018-02-16T19:12:11.317Z,-1.20
2018-02-16T19:14:38.845Z,-1.30
2018-02-16T19:17:06.391Z,-1.40
2018-02-16T19:19:34.683Z,-1.40
2018-02-16T19:22:02.464Z,-1.50
2018-02-16T19:24:30.023Z,-1.40
2018-02-16T19:26:57.889Z,-1.50
2018-02-16T19:29:25.454Z,-1.50
2018-02-16T19:31:52.999Z,-1.50
2018-02-16T19:34:20.578Z,-1.50
2018-02-16T19:36:48.121Z,-1.50
2018-02-16T19:39:15.646Z,-1.40
2018-02-16T19:41:43.957Z,-1.40
2018-02-16T19:44:11.838Z,-1.40
2018-02-16T19:46:39.417Z,-1.40
2018-02-16T19:49:07.266Z,-1.40
2018-02-16T19:51:34.847Z,-1.50
2018-02-16T19:54:02.395Z,-1.60
2018-02-16T19:56:29.950Z,-1.70
2018-02-16T19:58:58.227Z,-1.70
2018-02-16T20:01:26.680Z,-1.80
2018-02-16T20:03:55.062Z,-1.80
2018-02-16T20:06:23.374Z,-1.90
2018-02-16T20:08:50.930Z,-1.90
2018-02-16T20:11:19.308Z,-1.90
2018-02-16T20:13:47.786Z,-1.80
2018-02-16T20:16:15.860Z,-1.80
2018-02-16T20:18:44.446Z,-1.70
2018-02-16T20:21:12.907Z,-1.70
2018-02-16T20:23:40.456Z,-1.70
2018-02-16T20:26:08.741Z,-1.70
2018-02-16T20:28:37.155Z,-1.80
2018-02-16T20:31:04.681Z,-1.80
2018-02-16T20:33:33.030Z,-1.70
2018-02-16T20:36:00.658Z,-1.70
2018-02-16T20:38:28.201Z,-1.70
2018-02-16T20:40:55.721Z,-1.60
2018-02-16T20:43:23.341Z,-1.50
2018-02-16T20:45:50.872Z,-1.50
2018-02-16T20:48:18.418Z,-1.40
2018-02-16T20:50:46.714Z,-1.10
2018-02-16T20:53:15.941Z,-1.10
2018-02-16T20:55:43.700Z,-1.10
2018-02-16T20:58:11.357Z,-0.90
2018-02-16T21:00:38.912Z,-0.80
2018-02-16T21:03:06.438Z,-0.80
2018-02-16T21:05:34.745Z,-0.80
2018-02-16T21:08:02.266Z,-0.80
2018-02-16T21:10:29.881Z,-0.80
2018-02-16T21:12:57.413Z,-0.80
2018-02-16T21:15:25.721Z,-0.70
2018-02-16T21:17:53.253Z,-0.80
2018-02-16T21:20:21.556Z,-0.70
2018-02-16T21:22:49.121Z,-0.70
2018-02-16T21:25:16.673Z,-0.60
2018-02-16T21:27:44.193Z,-0.50
2018-02-16T21:30:11.731Z,-0.50
2018-02-16T21:32:39.260Z,-0.40
2018-02-16T21:35:06.804Z,-0.40
2018-02-16T21:37:34.326Z,-0.30
2018-02-16T21:40:01.884Z,-0.30
2018-02-16T21:42:29.497Z,-0.20
2018-02-16T21:44:57.022Z,-0.20
2018-02-16T21:47:25.328Z,-0.10
2018-02-16T21:49:52.900Z,-0.10
2018-02-16T21:52:20.437Z,-0.10
2018-02-16T21:54:47.961Z,-0.10
2018-02-16T21:57:15.509Z,-0.10
2018-02-16T21:59:43.047Z,0.00
2018-02-16T22:02:10.602Z,0.00
2018-02-16T22:04:38.120Z,0.00
2018-02-16T22:07:06.437Z,0.00
2018-02-16T22:09:33.954Z,0.00
2018-02-16T22:12:02.282Z,0.00
2018-02-16T22:14:29.800Z,0.00
2018-02-16T22:16:58.102Z,0.10
2018-02-16T22:19:25.671Z,0.10
2018-02-16T22:21:53.945Z,0.10
2018-02-16T22:24:21.461Z,0.10
2018-02-16T22:26:48.992Z,0.10
2018-02-16T22:29:16.518Z,0.10
2018-02-16T22:31:44.062Z,0.10
2018-02-16T22:34:12.349Z,0.10
2018-02-16T22:36:39.930Z,0.10
2018-02-16T22:39:07.450Z,0.10
2018-02-16T22:41:35.757Z,0.10
2018-02-16T22:44:03.276Z,0.10
2018-02-16T22:46:30.794Z,0.10
2018-02-16T22:48:58.334Z,0.10
2018-02-16T22:51:25.855Z,0.10
2018-02-16T22:53:53.472Z,0.10
2018-02-16T22:56:20.998Z,0.10
2018-02-16T22:58:49.309Z,0.10
2018-02-16T23:01:16.868Z,0.10
2018-02-16T23:03:44.414Z,0.10
2018-02-16T23:06:11.938Z,0.10
2018-02-16T23:08:39.550Z,0.10
2018-02-16T23:11:07.113Z,0.10
2018-02-16T23:13:34.649Z,0.10
2018-02-16T23:16:02.178Z,0.10
2018-02-16T23:18:30.485Z,0.20
2018-02-16T23:20:58.818Z,0.10
2018-02-16T23:23:26.330Z,0.10
2018-02-16T23:25:53.848Z,0.10
2018-02-16T23:28:21.385Z,0.10
2018-02-16T23:30:48.910Z,0.20
2018-02-16T23:33:16.453Z,0.20
2018-02-16T23:35:44.776Z,0.20
2018-02-16T23:38:13.018Z,0.20
2018-02-16T23:40:41.330Z,0.20
2018-02-16T23:43:08.838Z,0.20
2018-02-16T23:45:36.399Z,0.20
2018-02-16T23:48:03.958Z,0.10
2018-02-16T23:50:31.475Z,0.10
2018-02-16T23:52:59.767Z,0.20
2018-02-16T23:55:28.070Z,0.10
2018-02-16T23:57:55.595Z,0.10
